createdAt,value
2022-12-25T00:01:51.850Z,22.52
2022-12-25T00:08:54.067Z,18.77
2022-12-25T00:15:56.617Z,20.50
2022-12-25T00:22:58.861Z,18.25
2022-12-25T00:30:01.593Z,21.67
2022-12-25T00:37:03.735Z,16.98
2022-12-25T00:44:06.655Z,21.23
2022-12-25T00:51:11.571Z,20.88
2022-12-25T00:58:13.476Z,15.45
2022-12-25T01:05:15.603Z,19.25
2022-12-25T01:12:17.612Z,19.48
2022-12-25T01:19:19.530Z,20.98
2022-12-25T01:26:24.663Z,19.10
2022-12-25T01:33:26.679Z,18.88
2022-12-25T01:40:28.626Z,18.08
2022-12-25T01:47:30.613Z,19.63
2022-12-25T01:54:39.938Z,17.30
2022-12-25T02:01:42.294Z,16.30
2022-12-25T02:08:44.433Z,24.02
2022-12-25T02:16:10.644Z,25.75
2022-12-25T02:23:39.559Z,21.48
2022-12-25T02:30:46.500Z,22.65
2022-12-25T02:37:52.941Z,21.75
2022-12-25T02:45:13.476Z,18.38
2022-12-25T02:52:37.648Z,21.05
2022-12-25T02:59:59.639Z,27.58
2022-12-25T03:07:06.447Z,29.00
2022-12-25T03:14:27.731Z,21.33
2022-12-25T03:21:48.005Z,26.58
2022-12-25T03:28:50.017Z,21.48
2022-12-25T03:36:15.238Z,21.40
2022-12-25T03:44:00.605Z,22.38
2022-12-25T03:51:24.468Z,29.52
2022-12-25T03:58:46.311Z,22.85
2022-12-25T04:06:07.043Z,22.92
2022-12-25T04:13:27.677Z,22.65
2022-12-25T04:20:47.951Z,22.25
2022-12-25T04:28:08.609Z,22.45
2022-12-25T04:35:29.205Z,30.10
2022-12-25T04:42:31.115Z,28.33
2022-12-25T04:49:33.058Z,18.80
2022-12-25T04:56:38.658Z,23.38
2022-12-25T05:03:44.054Z,17.70
2022-12-25T05:10:46.142Z,26.42
2022-12-25T05:17:48.079Z,21.33
2022-12-25T05:24:50.144Z,24.25
2022-12-25T05:31:52.181Z,24.92
2022-12-25T05:38:54.089Z,30.20
2022-12-25T05:45:56.413Z,24.27
2022-12-25T05:53:01.502Z,21.67
2022-12-25T06:07:10.250Z,26.15
2022-12-25T06:14:13.577Z,25.02
2022-12-25T06:21:16.448Z,33.10
2022-12-25T06:28:18.329Z,27.90
2022-12-25T06:35:20.312Z,27.02
2022-12-25T06:42:22.335Z,27.85
2022-12-25T06:49:24.652Z,25.27
2022-12-25T06:56:28.186Z,28.73
2022-12-25T07:03:30.891Z,34.50
2022-12-25T07:10:33.000Z,32.40
2022-12-25T07:17:36.116Z,27.10
2022-12-25T07:24:38.088Z,31.20
2022-12-25T07:31:40.246Z,28.17
2022-12-25T07:38:42.769Z,24.67
2022-12-25T07:45:45.017Z,32.20
2022-12-25T07:52:47.277Z,40.03
2022-12-25T07:59:49.269Z,48.90
2022-12-25T08:06:51.298Z,37.47
2022-12-25T08:13:53.287Z,44.15
2022-12-25T08:20:55.649Z,35.53
2022-12-25T08:27:57.855Z,34.90
2022-12-25T08:35:00.133Z,31.73
2022-12-25T08:42:02.142Z,29.83
2022-12-25T08:49:04.282Z,39.58
2022-12-25T08:56:06.608Z,41.28
2022-12-25T09:03:08.723Z,43.63
2022-12-25T09:10:11.249Z,46.85
2022-12-25T09:17:13.317Z,51.35
2022-12-25T09:24:15.377Z,52.35
2022-12-25T09:31:17.479Z,43.75
2022-12-25T09:38:19.536Z,51.33
2022-12-25T09:45:33.197Z,41.83
2022-12-25T09:52:58.911Z,43.72
2022-12-25T10:00:01.191Z,31.08
2022-12-25T10:07:16.862Z,33.38
2022-12-25T10:14:36.408Z,32.10
2022-12-25T10:21:38.808Z,42.42
2022-12-25T10:28:51.823Z,40.67
2022-12-25T10:35:53.922Z,46.72
2022-12-25T10:43:01.846Z,35.92
2022-12-25T10:50:29.316Z,43.97
2022-12-25T10:57:32.690Z,36.40
2022-12-25T11:04:35.457Z,37.75
2022-12-25T11:11:38.452Z,23.88
2022-12-25T11:18:48.065Z,32.33
2022-12-25T11:33:12.941Z,41.08
2022-12-25T11:40:22.512Z,36.75
2022-12-25T11:54:32.715Z,31.10
2022-12-25T12:01:44.261Z,24.10
2022-12-25T12:08:48.812Z,26.48
2022-12-25T12:15:51.006Z,28.55
2022-12-25T12:22:53.361Z,29.95
2022-12-25T12:29:58.164Z,37.22
2022-12-25T12:37:04.816Z,34.47
2022-12-25T12:44:07.884Z,35.30
2022-12-25T12:51:15.657Z,30.33
2022-12-25T12:58:51.273Z,44.50
2022-12-25T13:06:08.586Z,41.95
2022-12-25T13:13:18.339Z,38.40
2022-12-25T13:20:34.769Z,37.25
2022-12-25T13:27:36.830Z,29.30
2022-12-25T13:34:42.668Z,31.35
2022-12-25T13:42:05.134Z,26.48
2022-12-25T13:49:14.996Z,34.92
2022-12-25T13:56:17.082Z,31.85
2022-12-25T14:03:23.223Z,53.90
2022-12-25T14:10:28.098Z,42.78
2022-12-25T14:17:30.187Z,44.92
2022-12-25T14:24:33.668Z,43.53
2022-12-25T14:31:38.669Z,49.67
2022-12-25T14:38:42.804Z,38.95
2022-12-25T14:45:55.166Z,38.78
2022-12-25T14:52:58.278Z,29.38
2022-12-25T15:00:05.677Z,27.60
2022-12-25T15:07:26.148Z,33.58
2022-12-25T15:14:28.214Z,25.42
2022-12-25T15:21:32.075Z,33.30
2022-12-25T15:28:34.105Z,30.88
2022-12-25T15:35:38.743Z,38.78
2022-12-25T15:42:41.229Z,38.15
2022-12-25T15:49:43.655Z,36.35
2022-12-25T15:56:52.630Z,45.15
2022-12-25T16:03:54.673Z,40.03
2022-12-25T16:10:56.761Z,33.08
2022-12-25T16:17:58.938Z,35.70
2022-12-25T16:25:01.343Z,37.80
2022-12-25T16:32:03.375Z,25.13
2022-12-25T16:39:05.845Z,38.20
2022-12-25T16:46:13.981Z,47.00
2022-12-25T16:53:16.006Z,48.22
2022-12-25T17:00:18.809Z,133.95
2022-12-25T17:07:20.873Z,92.15
2022-12-25T17:14:22.987Z,32.00
2022-12-25T17:21:26.681Z,33.38
2022-12-25T17:28:28.780Z,35.00
2022-12-25T17:35:30.803Z,39.53
2022-12-25T17:42:33.069Z,44.47
2022-12-25T17:49:36.530Z,45.92
2022-12-25T17:56:38.886Z,40.67
2022-12-25T18:03:41.160Z,38.88
2022-12-25T18:10:44.234Z,38.30
2022-12-25T18:17:46.550Z,37.47
2022-12-25T18:24:49.218Z,48.20
2022-12-25T18:31:51.506Z,44.03
2022-12-25T18:38:54.566Z,41.47
2022-12-25T18:45:58.426Z,58.83
2022-12-25T18:53:00.622Z,51.33
2022-12-25T19:00:04.874Z,44.55
2022-12-25T19:07:07.025Z,38.55
2022-12-25T19:14:09.810Z,36.25
2022-12-25T19:21:12.365Z,32.05
2022-12-25T19:28:14.450Z,38.28
2022-12-25T19:35:16.442Z,35.67
2022-12-25T19:42:19.099Z,33.65
2022-12-25T19:49:21.238Z,37.40
2022-12-25T19:56:24.467Z,36.33
2022-12-25T20:03:27.075Z,45.10
2022-12-25T20:10:39.002Z,44.38
2022-12-25T20:17:41.565Z,46.25
2022-12-25T20:24:43.960Z,46.38
2022-12-25T20:31:46.190Z,41.78
2022-12-25T20:38:49.231Z,55.72
2022-12-25T20:45:52.179Z,74.20
2022-12-25T20:52:54.988Z,102.25
2022-12-25T20:59:56.981Z,54.17
2022-12-25T21:06:59.197Z,50.03
2022-12-25T21:14:01.145Z,41.13
2022-12-25T21:21:06.024Z,38.60
2022-12-25T21:28:07.988Z,35.30
2022-12-25T21:35:10.181Z,36.58
2022-12-25T21:42:13.162Z,38.90
2022-12-25T21:49:35.583Z,33.85
2022-12-25T21:56:44.627Z,40.83
2022-12-25T22:03:47.512Z,39.95
2022-12-25T22:10:49.449Z,36.80
2022-12-25T22:18:09.819Z,36.13
2022-12-25T22:25:13.000Z,36.53
2022-12-25T22:32:16.352Z,36.25
2022-12-25T22:39:18.319Z,32.95
2022-12-25T22:46:20.373Z,34.95
2022-12-25T22:53:22.396Z,35.67
2022-12-25T23:00:24.404Z,31.27
2022-12-25T23:07:26.434Z,36.03
2022-12-25T23:14:40.401Z,35.08
2022-12-25T23:22:01.166Z,41.35
2022-12-25T23:29:21.772Z,42.20
2022-12-25T23:36:24.078Z,42.38
2022-12-25T23:43:26.052Z,45.10
2022-12-25T23:50:32.469Z,42.42
2022-12-25T23:57:36.625Z,38.03
